Time;durP1;ratioP1;P1;durP2;ratioP2;P2;SDS_P1;SDS_P2;PMS_P1;PMS_P2;Temp;Humidity;BMP_temperature;BMP_pressure;BME280_temperature;BME280_humidity;BME280_pressure;Samples;Min_cycle;Max_cycle;Signal;HPM_P1;HPM_P2
2021/05/04 00:00:27;;;;;;;5.25;4.07;;;8.60;99.90;;;;;;5014319;28;20546;-68
2021/05/04 00:02:55;;;;;;;4.75;4.25;;;8.50;99.90;;;;;;5011172;28;20186;-67
2021/05/04 00:05:22;;;;;;;4.70;3.45;;;8.40;99.90;;;;;;5010803;28;20191;-66
2021/05/04 00:07:50;;;;;;;4.80;4.22;;;8.50;99.90;;;;;;5011232;28;20187;-69
2021/05/04 00:10:17;;;;;;;8.82;3.65;;;8.70;99.90;;;;;;5011344;28;20182;-69
2021/05/04 00:12:45;;;;;;;6.78;3.42;;;9.00;99.90;;;;;;5011056;28;20217;-68
2021/05/04 00:15:13;;;;;;;4.75;3.05;;;9.50;99.90;;;;;;5011177;28;20179;-67
2021/05/04 00:17:40;;;;;;;4.60;3.20;;;9.40;99.90;;;;;;5011073;28;20206;-68
2021/05/04 00:20:09;;;;;;;4.35;3.92;;;9.30;99.90;;;;;;5009839;28;20258;-68
2021/05/04 00:22:36;;;;;;;3.83;3.40;;;9.20;99.90;;;;;;5010604;28;20265;-69
2021/05/04 00:25:05;;;;;;;3.35;2.42;;;9.10;99.90;;;;;;5011210;28;20655;-67
2021/05/04 00:27:32;;;;;;;3.30;3.00;;;9.10;99.90;;;;;;5010972;28;20671;-69
2021/05/04 00:29:59;;;;;;;2.85;2.55;;;9.20;99.90;;;;;;5011077;28;20194;-68
2021/05/04 00:32:26;;;;;;;2.53;2.30;;;9.20;99.90;;;;;;5009935;28;20308;-68
2021/05/04 00:34:53;;;;;;;5.43;3.00;;;9.40;99.90;;;;;;5012307;28;20178;-67
2021/05/04 00:37:22;;;;;;;4.32;3.30;;;9.50;99.90;;;;;;5013842;28;20170;-67
2021/05/04 00:39:49;;;;;;;4.22;3.22;;;9.60;99.90;;;;;;5012236;28;20222;-68
2021/05/04 00:42:16;;;;;;;2.63;2.05;;;9.70;99.90;;;;;;5013288;28;20186;-68
2021/05/04 00:44:43;;;;;;;3.80;3.40;;;9.60;99.90;;;;;;5013980;28;20193;-67
2021/05/04 00:47:10;;;;;;;2.22;2.03;;;9.60;99.90;;;;;;5013871;28;20205;-67
2021/05/04 00:49:38;;;;;;;4.10;2.85;;;9.40;99.90;;;;;;5013442;28;20280;-67
2021/05/04 00:52:05;;;;;;;4.07;3.22;;;9.20;99.90;;;;;;4995961;28;20202;-69
2021/05/04 00:54:33;;;;;;;3.70;3.03;;;9.10;99.90;;;;;;5028449;22;20221;-70
2021/05/04 00:57:01;;;;;;;2.83;2.63;;;9.00;99.90;;;;;;5014130;28;20601;-69
2021/05/04 00:59:29;;;;;;;3.08;2.70;;;9.00;99.90;;;;;;5013780;28;20616;-70
2021/05/04 01:01:56;;;;;;;4.00;2.47;;;9.00;99.90;;;;;;5017841;28;20186;-72
2021/05/04 01:04:28;;;;;;;3.40;2.42;;;9.00;99.90;;;;;;4997251;28;20414;-70
2021/05/04 01:06:55;;;;;;;3.92;2.33;;;9.20;99.90;;;;;;5015493;28;20540;-69
2021/05/04 01:09:22;;;;;;;2.47;2.28;;;9.30;99.90;;;;;;5014405;28;20725;-69
2021/05/04 01:11:50;;;;;;;3.42;3.00;;;9.40;99.90;;;;;;5015106;28;20198;-70
2021/05/04 01:14:18;;;;;;;4.00;3.25;;;9.40;99.90;;;;;;5013339;28;20658;-70
2021/05/04 01:16:48;;;;;;;3.38;2.35;;;9.00;99.90;;;;;;5013168;28;20190;-71
2021/05/04 01:19:16;;;;;;;3.35;2.88;;;8.90;99.90;;;;;;5013662;28;20206;-70
2021/05/04 01:21:45;;;;;;;2.88;2.60;;;8.70;99.90;;;;;;5014422;28;20273;-70
2021/05/04 01:24:12;;;;;;;2.60;2.40;;;9.10;99.90;;;;;;4996122;28;20581;-69
2021/05/04 01:26:41;;;;;;;2.75;2.20;;;9.20;99.90;;;;;;5013664;28;20202;-68
2021/05/04 01:29:08;;;;;;;3.80;2.38;;;9.00;99.90;;;;;;5013799;28;20285;-69
2021/05/04 01:31:35;;;;;;;2.45;2.25;;;9.10;99.90;;;;;;5013185;28;20216;-70
2021/05/04 01:34:03;;;;;;;2.33;2.13;;;9.30;99.90;;;;;;5012773;28;20178;-70
2021/05/04 01:36:30;;;;;;;3.05;1.83;;;9.10;99.90;;;;;;5012719;28;20194;-71
2021/05/04 01:38:58;;;;;;;2.97;2.75;;;8.90;99.90;;;;;;5013147;28;20210;-69
2021/05/04 01:41:25;;;;;;;7.68;3.05;;;8.90;99.90;;;;;;5012757;28;20196;-71
2021/05/04 01:43:53;;;;;;;4.25;2.83;;;9.10;99.90;;;;;;4994952;28;20289;-71
2021/05/04 01:46:20;;;;;;;2.35;2.15;;;9.20;99.90;;;;;;4994853;28;20190;-69
2021/05/04 01:48:47;;;;;;;4.90;2.67;;;9.20;99.90;;;;;;5012223;28;20209;-69
2021/05/04 01:51:15;;;;;;;3.70;3.10;;;9.10;99.90;;;;;;4994769;28;20248;-68
2021/05/04 01:53:43;;;;;;;2.45;2.25;;;9.40;99.90;;;;;;4994548;28;20190;-70
2021/05/04 01:56:11;;;;;;;3.55;2.72;;;9.30;99.90;;;;;;5012169;28;20620;-69
2021/05/04 01:58:38;;;;;;;3.60;2.67;;;9.10;99.90;;;;;;5012185;28;20214;-69
2021/05/04 02:01:05;;;;;;;3.05;2.72;;;9.10;99.90;;;;;;5011945;28;20173;-70
2021/05/04 02:03:32;;;;;;;2.97;2.38;;;9.10;99.90;;;;;;5011956;28;20198;-71
2021/05/04 02:06:00;;;;;;;2.42;2.22;;;8.90;99.90;;;;;;5011893;28;20194;-69
2021/05/04 02:08:27;;;;;;;3.53;2.70;;;9.00;99.90;;;;;;5011996;28;20691;-70
2021/05/04 02:10:54;;;;;;;2.47;2.03;;;9.10;99.90;;;;;;5011737;28;20191;-70
2021/05/04 02:13:23;;;;;;;3.20;2.20;;;8.90;99.90;;;;;;5011977;28;20201;-71
2021/05/04 02:15:50;;;;;;;2.75;2.55;;;8.90;99.90;;;;;;4994078;28;20198;-70
2021/05/04 02:18:18;;;;;;;2.97;2.67;;;8.90;99.90;;;;;;5011795;28;20210;-72
2021/05/04 02:20:45;;;;;;;2.40;2.13;;;8.70;99.90;;;;;;5011979;28;20273;-70
2021/05/04 02:23:12;;;;;;;3.30;2.65;;;8.80;99.90;;;;;;5011875;28;20197;-70
2021/05/04 02:25:40;;;;;;;3.67;3.38;;;8.70;99.90;;;;;;5011847;28;20842;-69
2021/05/04 02:28:07;;;;;;;3.17;2.88;;;8.80;99.90;;;;;;5011944;28;20213;-70
2021/05/04 02:30:35;;;;;;;3.83;3.10;;;9.20;99.90;;;;;;5011780;28;20558;-71
2021/05/04 02:33:03;;;;;;;3.70;3.10;;;9.20;99.90;;;;;;5011457;28;20213;-70
2021/05/04 02:35:30;;;;;;;3.03;2.72;;;9.20;99.90;;;;;;5011557;28;20187;-71
2021/05/04 02:37:57;;;;;;;2.35;2.15;;;9.30;99.90;;;;;;5011631;28;20212;-70
2021/05/04 02:40:24;;;;;;;3.75;2.45;;;9.20;99.90;;;;;;5011835;28;20194;-69
2021/05/04 02:42:52;;;;;;;2.67;2.47;;;9.10;99.90;;;;;;5011905;28;20178;-71
2021/05/04 02:45:19;;;;;;;3.80;2.72;;;9.40;99.90;;;;;;5012281;28;20175;-72
2021/05/04 02:47:47;;;;;;;2.70;2.50;;;9.40;99.90;;;;;;5011843;28;20275;-69
2021/05/04 02:50:15;;;;;;;3.95;3.40;;;9.30;99.90;;;;;;5011463;28;20216;-69
2021/05/04 02:52:42;;;;;;;4.05;3.22;;;9.10;99.90;;;;;;5010917;28;20197;-70
2021/05/04 02:55:10;;;;;;;2.70;2.42;;;9.10;99.90;;;;;;4994105;28;20220;-68
2021/05/04 02:57:37;;;;;;;3.70;2.75;;;9.10;99.90;;;;;;5010623;28;20198;-70
2021/05/04 03:00:07;;;;;;;3.95;2.95;;;9.00;99.90;;;;;;5011724;28;20182;-69
2021/05/04 03:02:34;;;;;;;2.45;2.25;;;9.00;99.90;;;;;;5011179;28;20272;-70
2021/05/04 03:05:03;;;;;;;5.00;3.30;;;9.00;99.90;;;;;;5011346;28;20220;-68
2021/05/04 03:07:31;;;;;;;4.85;3.67;;;8.90;99.90;;;;;;5010125;28;20190;-70
2021/05/04 03:09:58;;;;;;;3.70;3.40;;;9.00;99.90;;;;;;5011137;28;20237;-69
2021/05/04 03:12:25;;;;;;;6.90;4.18;;;9.10;99.90;;;;;;5010700;28;20712;-71
2021/05/04 03:14:52;;;;;;;3.22;2.95;;;8.90;99.90;;;;;;5011001;28;20186;-70
2021/05/04 03:17:20;;;;;;;4.88;3.35;;;8.90;99.90;;;;;;5011191;28;20178;-71
2021/05/04 03:19:49;;;;;;;3.72;3.42;;;9.00;99.90;;;;;;5012040;28;20212;-71
2021/05/04 03:22:17;;;;;;;3.45;2.65;;;8.90;99.90;;;;;;5012089;28;20269;-71
2021/05/04 03:24:44;;;;;;;7.18;3.15;;;8.80;99.90;;;;;;5011557;28;20174;-71
2021/05/04 03:27:11;;;;;;;5.10;3.65;;;8.60;99.90;;;;;;5011230;28;20547;-70
2021/05/04 03:29:39;;;;;;;3.15;2.95;;;8.60;99.90;;;;;;4993287;28;20253;-71
2021/05/04 03:32:07;;;;;;;3.50;2.83;;;8.60;99.90;;;;;;4994121;28;20213;-72
2021/05/04 03:34:34;;;;;;;5.28;3.70;;;8.70;99.90;;;;;;4994133;28;20193;-71
2021/05/04 03:37:02;;;;;;;3.38;2.50;;;8.70;99.90;;;;;;5012089;28;20671;-72
2021/05/04 03:39:30;;;;;;;2.90;2.60;;;8.70;99.90;;;;;;4995022;28;20222;-70
2021/05/04 03:41:58;;;;;;;3.63;2.67;;;8.60;99.90;;;;;;5012397;28;20197;-71
2021/05/04 03:44:25;;;;;;;3.78;3.17;;;8.80;99.90;;;;;;4994789;28;20237;-71
2021/05/04 03:46:52;;;;;;;7.40;3.58;;;9.00;99.90;;;;;;5010661;28;20229;-71
2021/05/04 03:49:19;;;;;;;3.97;3.22;;;8.90;99.90;;;;;;5010954;28;20214;-71
2021/05/04 03:51:47;;;;;;;3.78;3.47;;;9.00;99.90;;;;;;4993269;28;20209;-70
2021/05/04 03:54:14;;;;;;;3.53;2.60;;;8.90;99.90;;;;;;5010704;28;20651;-70
2021/05/04 03:56:45;;;;;;;5.45;3.40;;;8.60;99.90;;;;;;5010741;28;20589;-71
2021/05/04 03:59:12;;;;;;;3.72;2.63;;;8.60;99.90;;;;;;5011413;28;20233;-71
2021/05/04 04:01:39;;;;;;;4.82;3.75;;;8.60;99.90;;;;;;5011702;28;20262;-69
2021/05/04 04:04:07;;;;;;;5.72;4.10;;;8.60;99.90;;;;;;5010816;28;20317;-69
2021/05/04 04:06:34;;;;;;;3.92;3.17;;;8.90;99.90;;;;;;5011305;28;20200;-69
2021/05/04 04:09:01;;;;;;;4.43;3.90;;;8.90;99.90;;;;;;5013727;28;20214;-70
2021/05/04 04:11:28;;;;;;;4.45;3.33;;;8.70;99.90;;;;;;5015041;28;20206;-70
2021/05/04 04:13:56;;;;;;;5.82;4.30;;;8.60;99.90;;;;;;4998402;28;20189;-71
2021/05/04 04:16:24;;;;;;;2.88;2.63;;;8.70;99.90;;;;;;5016075;28;20174;-70
2021/05/04 04:18:51;;;;;;;5.25;4.00;;;8.70;99.90;;;;;;4997894;28;20361;-69
2021/05/04 04:21:18;;;;;;;3.40;3.10;;;8.90;99.90;;;;;;5014601;28;20205;-69
2021/05/04 04:23:45;;;;;;;5.47;3.45;;;9.00;99.90;;;;;;5014482;28;20171;-70
2021/05/04 04:26:12;;;;;;;3.83;3.50;;;9.10;99.90;;;;;;5013069;28;20663;-71
2021/05/04 04:28:40;;;;;;;4.25;3.28;;;9.10;99.90;;;;;;5012851;28;20225;-70
2021/05/04 04:31:08;;;;;;;5.22;3.45;;;9.10;99.90;;;;;;5013918;28;20588;-70
2021/05/04 04:33:35;;;;;;;5.75;4.00;;;8.90;99.90;;;;;;5013977;28;20198;-71
2021/05/04 04:36:02;;;;;;;5.55;4.10;;;8.80;99.90;;;;;;4996175;28;20206;-70
2021/05/04 04:38:29;;;;;;;4.10;3.65;;;8.80;99.90;;;;;;5014820;28;20206;-71
2021/05/04 04:40:56;;;;;;;7.72;3.72;;;8.90;99.90;;;;;;5014148;28;20182;-70
2021/05/04 04:43:24;;;;;;;4.07;3.42;;;9.00;99.90;;;;;;5014222;28;20171;-70
2021/05/04 04:45:51;;;;;;;3.58;3.03;;;9.10;99.90;;;;;;5013808;28;20587;-71
2021/05/04 04:48:19;;;;;;;4.43;3.45;;;9.00;99.90;;;;;;5012441;28;20225;-70
2021/05/04 04:50:46;;;;;;;4.20;3.50;;;9.00;99.90;;;;;;5013617;28;20181;-71
2021/05/04 04:53:13;;;;;;;4.13;3.72;;;9.10;99.90;;;;;;5013316;28;20209;-71
2021/05/04 04:55:41;;;;;;;5.45;3.80;;;9.10;99.90;;;;;;5013394;28;20194;-68
2021/05/04 04:58:08;;;;;;;4.50;4.10;;;9.10;99.90;;;;;;5013906;28;20209;-70
2021/05/04 05:00:35;;;;;;;4.00;3.63;;;9.10;99.90;;;;;;5013712;28;20659;-68
2021/05/04 05:03:02;;;;;;;5.15;3.55;;;9.10;99.90;;;;;;5013293;28;20186;-68
2021/05/04 05:05:30;;;;;;;5.53;3.03;;;9.20;99.90;;;;;;5012025;28;20285;-71
2021/05/04 05:07:57;;;;;;;3.97;2.97;;;9.20;99.90;;;;;;5013026;28;20218;-70
2021/05/04 05:10:25;;;;;;;4.55;3.72;;;9.30;99.90;;;;;;5013179;28;20190;-69
2021/05/04 05:12:52;;;;;;;3.85;3.45;;;9.50;99.90;;;;;;5013011;28;20194;-71
2021/05/04 05:15:19;;;;;;;3.95;3.15;;;9.60;99.90;;;;;;5013503;28;20210;-69
2021/05/04 05:17:46;;;;;;;4.82;3.40;;;9.60;99.90;;;;;;4995974;28;20190;-68
2021/05/04 05:20:14;;;;;;;4.93;4.45;;;9.60;99.90;;;;;;5014331;28;20432;-70
2021/05/04 05:22:45;;;;;;;3.83;3.30;;;9.70;99.90;;;;;;4998001;28;20554;-70
2021/05/04 05:25:12;;;;;;;5.25;4.72;;;9.70;99.90;;;;;;5014901;28;20178;-71
2021/05/04 05:27:40;;;;;;;5.13;3.15;;;9.70;99.90;;;;;;5014322;28;20481;-70
2021/05/04 05:30:09;;;;;;;4.93;3.60;;;9.70;99.90;;;;;;5013925;28;20194;-70
2021/05/04 05:32:36;;;;;;;7.97;4.90;;;9.80;99.90;;;;;;5014345;28;20209;-71
2021/05/04 05:35:04;;;;;;;5.90;3.80;;;9.60;99.90;;;;;;5012620;28;20184;-71
2021/05/04 05:37:31;;;;;;;6.93;4.63;;;9.70;99.90;;;;;;5012760;28;20628;-69
2021/05/04 05:39:59;;;;;;;4.03;3.40;;;9.90;99.90;;;;;;5012557;28;20201;-69
2021/05/04 05:42:26;;;;;;;5.20;4.00;;;10.00;99.90;;;;;;5012720;28;20214;-70
2021/05/04 05:44:54;;;;;;;4.47;3.25;;;10.10;99.90;;;;;;5008182;28;20187;-71
2021/05/04 05:47:21;;;;;;;4.70;3.35;;;10.30;99.90;;;;;;5011208;28;20190;-71
2021/05/04 05:49:48;;;;;;;5.47;3.67;;;10.50;99.90;;;;;;5011670;28;20225;-69
2021/05/04 05:52:16;;;;;;;3.20;2.95;;;10.70;99.90;;;;;;5013021;28;20217;-69
2021/05/04 05:54:43;;;;;;;5.50;4.32;;;10.70;99.90;;;;;;5013744;28;20194;-70
2021/05/04 05:57:11;;;;;;;3.72;3.25;;;11.00;99.90;;;;;;5015491;28;20178;-69
2021/05/04 05:59:39;;;;;;;4.20;2.95;;;11.20;99.90;;;;;;5015056;28;20300;-69
2021/05/04 06:02:06;;;;;;;3.53;2.95;;;11.40;99.90;;;;;;4996850;28;20190;-71
2021/05/04 06:04:33;;;;;;;3.78;3.38;;;11.50;99.90;;;;;;5014026;28;20702;-68
2021/05/04 06:07:01;;;;;;;3.78;3.47;;;11.60;99.90;;;;;;5012971;28;20588;-69
2021/05/04 06:09:29;;;;;;;6.60;4.22;;;11.60;99.90;;;;;;4995093;28;20217;-68
2021/05/04 06:11:56;;;;;;;3.30;2.93;;;11.70;99.90;;;;;;5012965;28;20515;-70
2021/05/04 06:14:24;;;;;;;3.00;2.57;;;11.70;99.90;;;;;;5012677;28;20433;-69
2021/05/04 06:16:52;;;;;;;7.90;4.03;;;12.00;99.90;;;;;;5012538;28;20408;-69
2021/05/04 06:19:22;;;;;;;5.07;3.63;;;12.10;99.90;;;;;;5012084;28;20983;-69
2021/05/04 06:21:49;;;;;;;6.97;4.03;;;12.30;99.90;;;;;;5012548;28;20376;-69
2021/05/04 06:24:16;;;;;;;7.57;4.63;;;12.50;99.90;;;;;;4995592;28;20415;-69
2021/05/04 06:26:44;;;;;;;3.30;3.00;;;12.60;99.90;;;;;;5011697;28;20418;-69
2021/05/04 06:29:12;;;;;;;4.10;2.87;;;12.80;99.90;;;;;;4995215;28;20973;-70
2021/05/04 06:31:40;;;;;;;4.30;3.70;;;12.80;99.90;;;;;;5010715;28;20763;-69
2021/05/04 06:34:09;;;;;;;2.80;2.33;;;13.30;99.90;;;;;;5012495;28;20479;-68
2021/05/04 06:36:37;;;;;;;5.13;3.60;;;13.50;99.90;;;;;;5012542;28;20906;-68
2021/05/04 06:39:04;;;;;;;4.57;3.40;;;13.30;99.90;;;;;;5012070;28;20519;-71
2021/05/04 06:41:35;;;;;;;5.77;3.27;;;13.30;99.90;;;;;;5012074;28;20452;-70
2021/05/04 06:44:03;;;;;;;7.83;3.33;;;13.50;99.90;;;;;;5011413;28;20550;-68
2021/05/04 06:46:31;;;;;;;4.10;2.97;;;13.70;99.90;;;;;;5011675;28;20392;-70
2021/05/04 06:49:00;;;;;;;3.57;3.03;;;13.70;99.90;;;;;;5012007;28;20796;-69
2021/05/04 06:51:28;;;;;;;4.10;3.43;;;13.60;99.90;;;;;;5012098;28;20392;-70
2021/05/04 06:53:55;;;;;;;5.47;4.10;;;13.50;99.90;;;;;;5027088;23;20508;-71
2021/05/04 06:56:22;;;;;;;7.07;3.87;;;13.20;99.90;;;;;;5029894;28;20448;-70
2021/05/04 06:58:49;;;;;;;6.23;3.90;;;13.20;99.90;;;;;;5041350;28;20958;-70
2021/05/04 07:01:17;;;;;;;3.47;3.17;;;13.20;99.90;;;;;;5050377;28;20408;-71
2021/05/04 07:03:44;;;;;;;2.90;2.37;;;13.10;99.90;;;;;;5050503;28;20415;-70
2021/05/04 07:06:12;;;;;;;3.77;2.80;;;13.10;99.90;;;;;;5050651;28;20843;-71
2021/05/04 07:08:40;;;;;;;5.43;3.00;;;13.10;99.90;;;;;;5050417;28;20429;-72
2021/05/04 07:11:07;;;;;;;4.63;3.53;;;13.10;99.90;;;;;;5050496;28;20954;-72
2021/05/04 07:13:34;;;;;;;4.10;3.27;;;13.20;99.90;;;;;;5050660;28;20941;-70
2021/05/04 07:16:01;;;;;;;3.00;2.50;;;13.00;99.90;;;;;;5051083;28;20915;-70
2021/05/04 07:18:28;;;;;;;4.50;3.50;;;12.80;99.90;;;;;;5051087;28;20469;-71
2021/05/04 07:20:55;;;;;;;4.03;3.13;;;12.80;99.90;;;;;;5051126;28;20412;-71
2021/05/04 07:23:24;;;;;;;5.00;3.23;;;12.90;99.90;;;;;;5032090;28;20409;-70
2021/05/04 07:25:51;;;;;;;2.87;2.60;;;13.10;99.90;;;;;;5050169;28;20390;-70
2021/05/04 07:28:18;;;;;;;5.33;4.03;;;13.10;99.90;;;;;;5050427;28;20443;-71
2021/05/04 07:30:46;;;;;;;5.77;3.80;;;13.00;99.90;;;;;;5050637;28;20423;-71
2021/05/04 07:33:13;;;;;;;5.13;3.20;;;12.90;99.90;;;;;;5049958;28;21046;-71
2021/05/04 07:35:41;;;;;;;6.60;2.47;;;12.90;99.90;;;;;;5050730;28;20445;-71
2021/05/04 07:38:08;;;;;;;3.90;3.43;;;12.90;99.90;;;;;;5050501;28;20420;-71
2021/05/04 07:40:39;;;;;;;5.03;2.70;;;12.90;99.90;;;;;;5050686;28;20485;-71
2021/05/04 07:43:06;;;;;;;3.30;3.03;;;12.90;99.90;;;;;;5032887;28;20410;-74
2021/05/04 07:45:34;;;;;;;3.57;2.90;;;12.90;99.90;;;;;;5036470;28;20495;-71
2021/05/04 07:48:02;;;;;;;3.90;3.10;;;12.50;99.90;;;;;;5054530;28;20441;-70
2021/05/04 07:50:30;;;;;;;4.50;2.77;;;12.00;99.90;;;;;;5054786;28;20420;-71
2021/05/04 07:52:57;;;;;;;3.40;3.07;;;11.80;99.90;;;;;;5054053;28;20979;-71
2021/05/04 07:55:25;;;;;;;4.40;2.93;;;11.70;99.90;;;;;;5054056;28;20434;-70
2021/05/04 07:57:53;;;;;;;3.50;3.20;;;11.70;99.90;;;;;;5054432;28;20446;-71
2021/05/04 08:00:20;;;;;;;2.50;2.30;;;11.80;99.90;;;;;;5054855;28;20952;-71
2021/05/04 08:02:47;;;;;;;4.70;3.60;;;11.60;99.90;;;;;;5054708;28;20393;-70
2021/05/04 08:05:15;;;;;;;4.05;3.40;;;11.50;99.90;;;;;;5055187;28;20665;-69
2021/05/04 08:07:42;;;;;;;2.88;2.63;;;11.60;99.90;;;;;;5054562;28;20201;-71
2021/05/04 08:10:11;;;;;;;3.67;3.07;;;11.60;99.90;;;;;;5054835;28;20640;-71
2021/05/04 08:12:38;;;;;;;5.93;2.90;;;11.60;99.90;;;;;;5055535;28;20946;-70
2021/05/04 08:15:12;;;;;;;4.63;3.67;;;11.80;99.90;;;;;;5054658;28;20440;-69
2021/05/04 08:17:41;;;;;;;3.77;3.47;;;11.90;99.90;;;;;;5053719;28;20766;-71
2021/05/04 08:20:10;;;;;;;2.70;2.33;;;12.10;99.90;;;;;;5037181;28;20759;-72
2021/05/04 08:22:37;;;;;;;2.80;2.00;;;12.40;99.90;;;;;;5041808;28;20429;-70
2021/05/04 08:25:06;;;;;;;3.50;3.20;;;12.70;99.90;;;;;;5042004;28;20470;-71
2021/05/04 08:27:33;;;;;;;4.00;2.97;;;12.70;99.90;;;;;;5059301;28;20494;-71
2021/05/04 08:30:00;;;;;;;5.10;3.30;;;12.70;99.90;;;;;;5059937;28;20514;-72
2021/05/04 08:32:28;;;;;;;3.10;2.40;;;12.90;99.90;;;;;;5061117;28;20539;-69
2021/05/04 08:34:55;;;;;;;4.10;3.23;;;13.20;99.90;;;;;;5061798;28;20438;-70
2021/05/04 08:37:23;;;;;;;3.53;3.00;;;13.10;99.90;;;;;;5061172;28;20389;-72
2021/05/04 08:39:50;;;;;;;3.20;2.90;;;13.10;99.90;;;;;;5044455;28;20471;-71
2021/05/04 08:42:17;;;;;;;5.73;3.53;;;13.20;99.90;;;;;;5063264;28;20446;-72
2021/05/04 08:44:50;;;;;;;4.27;3.00;;;13.30;99.90;;;;;;5063048;28;20831;-70
2021/05/04 08:47:18;;;;;;;4.77;2.97;;;13.50;99.90;;;;;;5061535;28;20435;-72
2021/05/04 08:49:48;;;;;;;3.40;3.10;;;13.70;99.90;;;;;;5045169;28;20466;-71
2021/05/04 08:52:16;;;;;;;3.10;2.80;;;13.60;99.90;;;;;;5061935;28;20490;-70
2021/05/04 08:54:43;;;;;;;3.00;2.50;;;13.80;99.90;;;;;;5060176;28;20418;-70
2021/05/04 08:57:15;;;;;;;3.17;2.90;;;14.30;99.90;;;;;;5062361;28;20439;-71
2021/05/04 08:59:43;;;;;;;4.07;2.90;;;14.40;99.90;;;;;;5044618;28;20447;-70
2021/05/04 09:02:10;;;;;;;4.43;3.30;;;14.40;99.90;;;;;;5060603;28;20795;-70
2021/05/04 09:04:40;;;;;;;2.97;2.60;;;14.60;99.90;;;;;;5060436;28;20526;-69
2021/05/04 09:07:19;;;;;;;3.33;3.03;;;14.90;99.90;;;;;;5058166;28;20447;-70
2021/05/04 09:10:16;;;;;;;3.00;2.37;;;15.30;99.90;;;;;;5058534;28;20442;-71
2021/05/04 09:12:48;;;;;;;3.13;2.50;;;15.60;99.90;;;;;;5040157;28;20463;-70
2021/05/04 09:21:34;;;;;;;7.40;2.60;;;15.90;99.90;;;;;;5058084;28;20408;-71
2021/05/04 09:24:28;;;;;;;2.20;2.00;;;15.50;99.90;;;;;;5059856;28;20427;-73
2021/05/04 09:27:00;;;;;;;2.93;2.63;;;15.10;99.90;;;;;;5055073;28;20446;-70
2021/05/04 09:29:29;;;;;;;3.83;2.80;;;15.00;99.90;;;;;;5058179;28;20453;-71
2021/05/04 09:32:09;;;;;;;2.20;2.00;;;14.90;99.90;;;;;;5053107;28;20546;-71
2021/05/04 09:34:47;;;;;;;4.33;2.73;;;15.40;99.90;;;;;;5052319;28;20405;-72
2021/05/04 09:37:43;;;;;;;2.43;1.70;;;15.70;99.90;;;;;;5051770;28;20427;-72
2021/05/04 09:40:23;;;;;;;1.60;1.40;;;15.90;99.90;;;;;;5051751;28;20430;-72
2021/05/04 09:43:00;;;;;;;2.73;2.30;;;15.60;99.90;;;;;;5051367;28;20398;-70
2021/05/04 09:45:27;;;;;;;2.97;1.90;;;15.60;99.90;;;;;;5051571;28;20886;-70
2021/05/04 09:48:11;;;;;;;3.60;2.20;;;15.60;99.90;;;;;;5051517;28;20435;-70
2021/05/04 09:51:01;;;;;;;1.90;1.57;;;15.50;99.90;;;;;;5051184;28;20883;-70
2021/05/04 09:53:37;;;;;;;2.37;1.93;;;15.60;99.90;;;;;;5045814;28;20442;-69
2021/05/04 09:56:05;;;;;;;2.07;1.53;;;15.60;99.90;;;;;;5051176;28;20439;-71
2021/05/04 09:58:38;;;;;;;2.77;1.63;;;15.70;99.90;;;;;;5050888;28;20422;-71
2021/05/04 10:01:07;;;;;;;1.73;1.50;;;16.10;99.90;;;;;;5050814;28;20398;-70
2021/05/04 10:03:36;;;;;;;2.80;2.30;;;16.10;99.90;;;;;;5050997;28;20794;-70
2021/05/04 10:06:05;;;;;;;2.27;1.93;;;16.20;99.90;;;;;;5050823;28;20390;-70
2021/05/04 10:08:34;;;;;;;3.47;1.73;;;16.10;99.90;;;;;;5050834;28;20452;-70
2021/05/04 10:11:04;;;;;;;2.83;1.80;;;16.30;99.90;;;;;;5036962;28;20440;-70
2021/05/04 10:13:34;;;;;;;4.50;2.13;;;16.40;99.90;;;;;;5033789;28;20445;-70
2021/05/04 10:16:03;;;;;;;1.67;1.30;;;16.30;99.90;;;;;;5030787;28;20438;-70
2021/05/04 10:18:31;;;;;;;2.10;1.77;;;16.40;99.90;;;;;;5030680;28;20438;-70
2021/05/04 10:21:01;;;;;;;2.67;1.90;;;16.50;99.90;;;;;;5030941;28;20451;-70
2021/05/04 10:23:30;;;;;;;2.13;1.50;;;16.60;99.90;;;;;;5030335;28;20486;-69
2021/05/04 10:26:02;;;;;;;2.40;1.43;;;16.70;99.90;;;;;;5030745;28;20790;-71
2021/05/04 10:28:32;;;;;;;2.90;1.63;;;16.80;99.90;;;;;;5030709;28;20510;-71
2021/05/04 10:31:01;;;;;;;1.70;1.60;;;16.90;99.90;;;;;;5030236;28;20430;-71
2021/05/04 10:33:34;;;;;;;2.53;2.33;;;16.70;99.90;;;;;;5030045;28;20446;-69
2021/05/04 10:36:03;;;;;;;2.23;1.53;;;16.70;99.90;;;;;;5030507;28;20439;-71
2021/05/04 10:38:50;;;;;;;2.57;2.33;;;16.80;99.90;;;;;;5029363;28;20471;-70
2021/05/04 10:41:17;;;;;;;9.50;1.70;;;16.60;99.90;;;;;;5030363;28;20438;-71
2021/05/04 10:43:44;;;;;;;2.50;1.77;;;16.00;99.90;;;;;;5030012;28;20420;-70
2021/05/04 10:46:40;;;;;;;7.20;2.07;;;15.40;99.90;;;;;;5030810;28;20455;-70
2021/05/04 10:49:09;;;;;;;1.83;1.30;;;15.20;99.90;;;;;;5030558;28;20456;-72
2021/05/04 10:51:47;;;;;;;2.20;1.73;;;15.00;99.90;;;;;;5030782;28;20390;-72
2021/05/04 10:54:16;;;;;;;1.83;1.60;;;15.00;99.90;;;;;;5030867;28;21027;-71
2021/05/04 10:56:45;;;;;;;1.63;1.43;;;15.10;99.90;;;;;;5030347;28;20398;-71
2021/05/04 10:59:34;;;;;;;1.80;1.30;;;15.30;99.90;;;;;;5030130;28;20567;-71
2021/05/04 11:02:29;;;;;;;1.67;1.13;;;15.30;99.90;;;;;;5039476;28;20939;-70
2021/05/04 11:04:57;;;;;;;5.33;1.50;;;15.40;99.90;;;;;;5049884;28;20424;-73
2021/05/04 11:07:53;;;;;;;3.10;1.87;;;15.30;99.90;;;;;;5032019;28;20410;-74
2021/05/04 11:10:24;;;;;;;3.13;1.20;;;15.30;99.90;;;;;;5049991;28;20947;-72
2021/05/04 11:12:52;;;;;;;2.27;1.50;;;15.10;99.90;;;;;;5031781;28;21043;-71
2021/05/04 11:15:21;;;;;;;1.57;1.47;;;15.00;99.90;;;;;;5050146;28;20419;-72
2021/05/04 11:17:50;;;;;;;4.87;2.23;;;14.90;99.90;;;;;;5049428;28;20427;-72
2021/05/04 11:20:37;;;;;;;2.40;1.70;;;15.00;99.90;;;;;;5032062;28;20397;-70
2021/05/04 11:23:06;;;;;;;2.63;1.70;;;15.40;99.90;;;;;;5049075;28;20423;-73
2021/05/04 11:25:35;;;;;;;3.30;1.83;;;15.70;99.90;;;;;;5049562;28;20436;-72
2021/05/04 11:28:02;;;;;;;2.50;2.30;;;16.20;99.90;;;;;;5049705;28;20439;-71
2021/05/04 11:30:37;;;;;;;2.23;1.37;;;16.50;99.90;;;;;;5049799;28;20428;-71
2021/05/04 11:33:27;;;;;;;1.97;1.80;;;16.90;99.90;;;;;;5049526;28;20463;-71
2021/05/04 11:35:55;;;;;;;1.60;1.50;;;17.00;99.90;;;;;;5050315;28;20894;-71
2021/05/04 11:38:24;;;;;;;1.80;1.50;;;16.80;99.90;;;;;;5049596;28;20439;-72
2021/05/04 11:40:52;;;;;;;1.63;1.17;;;16.60;99.90;;;;;;5032272;28;20401;-72
2021/05/04 11:43:21;;;;;;;1.20;1.10;;;16.50;99.90;;;;;;5050055;28;20426;-70
2021/05/04 11:45:49;;;;;;;3.87;1.37;;;15.90;99.90;;;;;;5049942;28;20404;-70
2021/05/04 11:48:18;;;;;;;1.30;0.90;;;15.60;99.90;;;;;;5050168;28;20443;-71
2021/05/04 11:50:48;;;;;;;3.90;2.33;;;15.40;99.90;;;;;;5041122;28;20425;-70
2021/05/04 11:53:17;;;;;;;2.43;2.23;;;15.30;99.90;;;;;;5049674;28;20437;-71
2021/05/04 11:55:46;;;;;;;2.30;0.83;;;15.30;99.90;;;;;;5050349;28;20405;-69
2021/05/04 11:58:18;;;;;;;2.90;1.90;;;15.30;99.90;;;;;;5050436;28;20858;-70
2021/05/04 12:00:46;;;;;;;2.23;1.53;;;15.50;99.90;;;;;;5050009;28;20722;-70
2021/05/04 12:03:15;;;;;;;1.43;1.20;;;15.50;99.90;;;;;;5049676;28;20430;-72
2021/05/04 12:05:44;;;;;;;1.23;1.00;;;15.40;99.90;;;;;;5049792;28;20404;-72
2021/05/04 12:08:12;;;;;;;1.10;0.87;;;15.30;99.90;;;;;;5032256;28;20867;-71
2021/05/04 12:10:40;;;;;;;7.80;2.83;;;15.30;99.90;;;;;;5036688;28;20426;-71
2021/05/04 12:13:10;;;;;;;1.20;0.97;;;15.30;99.90;;;;;;5029352;28;20493;-71
2021/05/04 12:15:39;;;;;;;1.97;1.40;;;15.40;99.90;;;;;;5030425;28;20416;-71
2021/05/04 12:18:11;;;;;;;5.80;1.80;;;15.40;99.90;;;;;;5030413;28;20433;-72
2021/05/04 12:20:43;;;;;;;5.73;1.33;;;15.50;99.90;;;;;;5030324;28;20395;-72
2021/05/04 12:23:13;;;;;;;1.57;1.47;;;15.30;99.90;;;;;;5029394;28;20518;-72
2021/05/04 12:25:56;;;;;;;1.40;1.10;;;15.10;99.90;;;;;;5029687;28;20430;-73
2021/05/04 12:28:26;;;;;;;1.87;1.40;;;14.80;99.90;;;;;;5030672;28;20931;-70
2021/05/04 12:31:01;;;;;;;2.50;1.40;;;15.00;99.90;;;;;;5016297;28;20443;-69
2021/05/04 12:33:29;;;;;;;4.60;1.77;;;15.10;99.90;;;;;;5033936;28;20434;-71
2021/05/04 12:36:00;;;;;;;1.33;0.93;;;15.20;99.90;;;;;;5045620;28;20434;-70
2021/05/04 12:38:37;;;;;;;1.80;1.30;;;15.00;99.90;;;;;;5053294;28;20561;-70
2021/05/04 12:41:08;;;;;;;2.87;1.40;;;15.10;99.90;;;;;;5053111;28;20423;-70
2021/05/04 12:43:39;;;;;;;5.90;1.30;;;15.00;99.90;;;;;;5053068;28;20478;-71
2021/05/04 12:46:19;;;;;;;2.10;1.27;;;15.10;99.90;;;;;;5053412;28;20491;-70
2021/05/04 12:48:52;;;;;;;1.80;1.60;;;15.30;99.90;;;;;;5053250;28;20910;-70
2021/05/04 12:51:24;;;;;;;1.53;1.07;;;15.60;99.90;;;;;;5052824;28;20461;-70
2021/05/04 12:56:54;;;;;;;1.97;1.40;;;15.90;99.90;;;;;;4984808;28;20451;-72
2021/05/04 12:59:28;;;;;;;1.67;1.20;;;16.20;99.90;;;;;;4985987;28;20946;-70
2021/05/04 13:01:56;;;;;;;1.93;1.67;;;16.10;99.90;;;;;;4995994;28;20377;-69
2021/05/04 13:04:38;;;;;;;1.83;1.10;;;15.90;99.90;;;;;;4988265;28;20448;-72
2021/05/04 13:07:23;;;;;;;1.70;1.10;;;15.60;99.90;;;;;;4977544;28;20946;-71
2021/05/04 13:09:58;;;;;;;1.10;1.00;;;15.40;99.90;;;;;;4974722;28;20499;-71